Nearby METAR Reports

 

KORH - Worcester, Massachusetts, USA
Distance from station: NW 4mi, 7km
Updated: Sat, 25-Sep-2021 8:54pm EDT
Partly cloudy
Partly cloudy
 Wind from ESE
Wind: ESE 3 mph , 6 km/h
Temperature: 64°F , 18°C
Dew Point: 57°F , 14°C
Humidity: 78%
Barometer: 29.93 inHg , 1013.5 hPa
Clouds: Partly cloudy
Visibility: 10 miles , 16 km
Cloud details: Partly cloudy 5000 ft
2021/09/26 00:54 KORH 260054Z 12003KT 10SM SCT050 18/14 A2993 RMK AO2 SLP133 LAST AUGMENTED OBS T01830139
KBOS - Boston, Massachusetts, USA
Distance from station: ENE 42mi, 68km
Updated: Sat, 25-Sep-2021 9:19pm EDT
Overcast
Overcast
 Wind from calm
Wind: Calm
Temperature: 64°F , 18°C
Dew Point: 63°F , 17°C
Humidity: 94%
Barometer: 29.90 inHg , 1012.5 hPa
Clouds: Overcast
Visibility: 10 miles , 16 km
Cloud details: Partly cloudy 400 ft
Overcast 1400 ft
2021/09/26 01:19 KBOS 260119Z 00000KT 10SM SCT004 OVC014 18/17 A2990 RMK AO2 T01830167
 
KCQX - Chatham, Massachusetts, USA
Distance from station: SE 102mi, 164km
Updated: Sat, 25-Sep-2021 9:14pm EDT
Mist, Overcast
Mist, Overcast
 Wind from SSE
Wind: SSE 5 mph , 7 km/h
Temperature: 66°F , 19°C
Dew Point: 66°F , 19°C
Humidity: 100%
Barometer: 29.91 inHg , 1012.9 hPa
Summary: Mist
Clouds: Overcast
Visibility: 3 miles , 5 km
Cloud details: Overcast 200 ft
2021/09/26 01:14 KCQX 260114Z AUTO 15004KT 3SM BR OVC002 19/19 A2991 RMK AO2 T01940194
KMVY - Marthas Vineyard, Massachusetts, USA
Distance from station: SE 84mi, 135km
Updated: Sat, 25-Sep-2021 8:53pm EDT
Light rain, Mist, Overcast
Light rain, Mist, Overcast
 Wind from NNE
Wind: NNE 8 mph , 13 km/h
Temperature: 66°F , 19°C
Dew Point: 66°F , 19°C
Humidity: 100%
Barometer: 29.90 inHg , 1012.5 hPa
Summary: Light rain, Mist
Clouds: Overcast
Visibility: 3 miles , 5 km
Cloud details: Overcast 400 ft
2021/09/26 00:53 KMVY 260053Z 03007KT 3SM -RA BR OVC004 19/19 A2990 RMK AO2 RAB30 SLP123 P0005 T01940194
 
KPVC - Provincetown, Massachusetts, USA
Distance from station: NNW 85mi, 136km
Updated: Sat, 25-Sep-2021 8:56pm EDT
Mist, Overcast
Mist, Overcast
 Wind from WNW
Wind: WNW 5 mph , 7 km/h
Temperature: 66°F , 19°C
Dew Point: 66°F , 19°C
Humidity: 100%
Barometer: 29.92 inHg , 1013.2 hPa
Summary: Mist
Clouds: Overcast
Visibility: 1 mile , 2 km
Cloud details: Overcast 300 ft
2021/09/26 00:56 KPVC 260056Z AUTO 30004KT 1SM BR OVC003 19/19 A2992 RMK AO2 SLP130 T01890189
KAQW - Savoy, Massachusetts, USA
Distance from station: NNW 66mi, 106km
Updated: Fri, 24-Sep-2021 10:52pm EDT
NOT Current
Clear
Clear
 Wind from calm
Wind: Calm
Temperature: 54°F , 12°C
Dew Point: 50°F , 10°C
Humidity: 88%
Barometer: 30.08 inHg , 1018.6 hPa
Clouds: Clear
Visibility: 10 miles , 16 km
2021/09/25 02:52 KAQW 250252Z AUTO 00000KT 10SM CLR 12/10 A3008 RMK AO2 SLP186 T01170100 50004
 
KIZG - Fryeburg, Maine, USA
Distance from station: NNE 133mi, 214km
Updated: Sat, 25-Sep-2021 8:54pm EDT
Clear
Clear
 Wind from WNW
Wind: WNW 3 mph , 6 km/h
Temperature: 57°F , 14°C
Dew Point: 55°F , 13°C
Humidity: 94%
Barometer: 29.93 inHg , 1013.5 hPa
Clouds: Clear
Visibility: 10 miles , 16 km
2021/09/26 00:54 KIZG 260054Z AUTO 30003KT 10SM CLR 14/13 A2993 RMK AO2 SLP135 T01390133
KMWN - Mt Washington, New Hampshire, USA
Distance from station: NNE 146mi, 234km
Updated: Sat, 25-Sep-2021 8:56pm EDT

 Wind from S
Wind: S 25 mph , 41 km/h, Gust: 30 mph , 48 km/h
Visibility: 50 miles , 80 km
2021/09/26 00:56 KMWN 260056Z 19022G26KT 50SM BKN/// SCT/// FEW005 FEW010 SCT190 SCT220 09/01 RMK TPS LWR BKN042 BBLO SCT DSNT NE-SE
 
KBML - Berlin, New Hampshire, USA
Distance from station: NNE 160mi, 257km
Updated: Sat, 25-Sep-2021 9:17pm EDT
Few Clouds
Few Clouds
 Wind from calm
Wind: Calm
Temperature: 52°F , 11°C
Dew Point: 48°F , 9°C
Humidity: 88%
Barometer: 29.93 inHg , 1013.5 hPa
Clouds: Few Clouds
Visibility: 10 miles , 16 km
Cloud details: Few Clouds 200 ft
2021/09/26 01:17 KBML 260117Z AUTO 00000KT 10SM FEW002 11/09 A2993 RMK AO2 T01060089